createdAt,value
2019-06-15T00:00:49.361Z,17.19
2019-06-15T00:01:49.341Z,17.08
2019-06-15T00:02:49.324Z,17.04
2019-06-15T00:03:49.317Z,17.02
2019-06-15T00:04:49.303Z,17.04
2019-06-15T00:05:49.287Z,16.99
2019-06-15T00:06:49.298Z,17.09
2019-06-15T00:07:49.266Z,17.02
2019-06-15T00:08:49.253Z,17.02
2019-06-15T00:09:49.243Z,17.02
2019-06-15T00:10:49.230Z,17.08
2019-06-15T00:11:49.221Z,17.04
2019-06-15T00:12:49.238Z,17.09
2019-06-15T00:13:49.201Z,17.11
2019-06-15T00:14:49.185Z,17.14
2019-06-15T00:15:49.171Z,17.12
2019-06-15T00:16:49.162Z,17.19
2019-06-15T00:17:49.146Z,17.16
2019-06-15T00:18:49.149Z,17.22
2019-06-15T00:19:49.128Z,17.06
2019-06-15T00:20:49.113Z,17.06
2019-06-15T00:21:49.099Z,17.08
2019-06-15T00:22:49.092Z,17.04
2019-06-15T00:23:49.079Z,17.06
2019-06-15T00:24:49.090Z,17.05
2019-06-15T00:25:49.064Z,16.94
2019-06-15T00:26:49.040Z,17.05
2019-06-15T00:27:49.036Z,17.05
2019-06-15T00:28:49.017Z,16.99
2019-06-15T00:29:49.004Z,17.01
2019-06-15T00:30:49.018Z,17.06
2019-06-15T00:31:48.979Z,16.97
2019-06-15T00:32:48.968Z,16.94
2019-06-15T00:33:48.959Z,16.94
2019-06-15T00:34:48.946Z,16.93
2019-06-15T00:35:48.935Z,17.02
2019-06-15T00:36:48.944Z,17.01
2019-06-15T00:37:48.911Z,17.01
2019-06-15T00:38:48.895Z,17.02
2019-06-15T00:39:48.888Z,17.01
2019-06-15T00:40:48.872Z,16.99
2019-06-15T00:41:48.864Z,17.04
2019-06-15T00:42:48.876Z,17.11
2019-06-15T00:43:48.836Z,17.06
2019-06-15T00:44:48.834Z,17.02
2019-06-15T00:45:48.826Z,17.05
2019-06-15T00:46:48.806Z,17.09
2019-06-15T00:47:48.792Z,17.02
2019-06-15T00:48:48.796Z,16.96
2019-06-15T00:49:48.767Z,17.04
2019-06-15T00:50:48.755Z,17.04
2019-06-15T00:51:48.752Z,16.87
2019-06-15T00:52:48.737Z,16.91
2019-06-15T00:53:48.718Z,16.84
2019-06-15T00:54:50.610Z,16.86
2019-06-15T00:55:48.694Z,16.86
2019-06-15T00:56:48.681Z,16.81
2019-06-15T00:57:48.675Z,16.93
2019-06-15T00:58:48.661Z,16.86
2019-06-15T00:59:48.659Z,16.90
2019-06-15T01:00:48.668Z,16.78
2019-06-15T01:01:48.623Z,16.83
2019-06-15T01:02:48.615Z,16.87
2019-06-15T01:03:48.610Z,16.81
2019-06-15T01:04:48.587Z,16.84
2019-06-15T01:05:48.578Z,16.89
2019-06-15T01:06:48.590Z,16.76
2019-06-15T01:07:48.551Z,16.84
2019-06-15T01:08:48.548Z,16.81
2019-06-15T01:09:48.529Z,16.79
2019-06-15T01:10:48.517Z,16.86
2019-06-15T01:11:48.504Z,16.83
2019-06-15T01:12:48.516Z,16.84
2019-06-15T01:13:48.485Z,16.84
2019-06-15T01:14:48.469Z,16.84
2019-06-15T01:15:48.457Z,16.78
2019-06-15T01:16:48.446Z,16.84
2019-06-15T01:17:48.439Z,16.86
2019-06-15T01:18:48.453Z,16.84
2019-06-15T01:19:48.408Z,16.79
2019-06-15T01:20:48.405Z,16.89
2019-06-15T01:21:48.402Z,16.76
2019-06-15T01:22:48.375Z,16.78
2019-06-15T01:23:48.368Z,16.74
2019-06-15T01:24:48.372Z,16.71
2019-06-15T01:25:48.348Z,16.72
2019-06-15T01:26:48.335Z,16.72
2019-06-15T01:27:48.315Z,16.71
2019-06-15T01:28:48.305Z,16.66
2019-06-15T01:29:48.292Z,16.66
2019-06-15T01:30:48.305Z,16.69
2019-06-15T01:31:48.277Z,16.66
2019-06-15T01:32:48.256Z,16.61
2019-06-15T01:33:48.248Z,16.64
2019-06-15T01:34:48.237Z,16.64
2019-06-15T01:35:48.222Z,16.61
2019-06-15T01:36:48.235Z,16.64
2019-06-15T01:37:48.201Z,16.68
2019-06-15T01:38:48.186Z,16.60
2019-06-15T01:39:48.175Z,16.61
2019-06-15T01:40:48.163Z,16.58
2019-06-15T01:41:48.154Z,16.66
2019-06-15T01:42:48.158Z,16.68
2019-06-15T01:43:48.125Z,16.66
2019-06-15T01:44:48.114Z,16.71
2019-06-15T01:45:48.103Z,16.65
2019-06-15T01:46:48.090Z,16.76
2019-06-15T01:47:48.077Z,16.74
2019-06-15T01:48:48.083Z,16.75
2019-06-15T01:49:48.053Z,16.72
2019-06-15T01:50:48.039Z,16.74
2019-06-15T01:51:48.033Z,16.72
2019-06-15T01:52:48.019Z,16.68
2019-06-15T01:53:48.023Z,16.71
2019-06-15T01:54:48.016Z,16.64
2019-06-15T01:55:47.980Z,16.60
2019-06-15T01:56:47.973Z,16.61
2019-06-15T01:57:47.957Z,16.64
2019-06-15T01:58:47.946Z,16.64
2019-06-15T01:59:47.937Z,16.60
2019-06-15T02:00:47.943Z,16.66
2019-06-15T02:01:47.912Z,16.57
2019-06-15T02:02:47.896Z,16.58
2019-06-15T02:03:47.889Z,16.61
2019-06-15T02:04:47.880Z,16.58
2019-06-15T02:05:47.860Z,16.58
2019-06-15T02:06:47.869Z,16.56
2019-06-15T02:07:47.844Z,16.56
2019-06-15T02:08:47.826Z,16.64
2019-06-15T02:09:47.832Z,16.65
2019-06-15T02:10:47.800Z,16.64
2019-06-15T02:11:47.787Z,16.58
2019-06-15T02:12:47.798Z,16.57
2019-06-15T02:13:47.764Z,16.66
2019-06-15T02:14:47.756Z,16.61
2019-06-15T02:15:47.739Z,16.58
2019-06-15T02:16:47.741Z,16.61
2019-06-15T02:17:47.720Z,16.58
2019-06-15T02:18:47.727Z,16.61
2019-06-15T02:19:47.691Z,16.57
2019-06-15T02:20:47.680Z,16.53
2019-06-15T02:21:47.671Z,16.60
2019-06-15T02:22:47.665Z,16.64
2019-06-15T02:23:47.643Z,16.46
2019-06-15T02:24:47.648Z,16.47
2019-06-15T02:25:47.617Z,16.47
2019-06-15T02:26:47.611Z,16.41
2019-06-15T02:27:47.597Z,16.49
2019-06-15T02:28:47.589Z,16.54
2019-06-15T02:29:47.575Z,16.46
2019-06-15T02:30:47.584Z,16.57
2019-06-15T02:31:47.546Z,16.50
2019-06-15T02:32:47.536Z,16.49
2019-06-15T02:33:47.527Z,16.39
2019-06-15T02:34:47.512Z,16.50
2019-06-15T02:35:47.509Z,16.39
2019-06-15T02:36:47.507Z,16.42
2019-06-15T02:37:47.479Z,16.41
2019-06-15T02:38:47.476Z,16.41
2019-06-15T02:39:47.450Z,16.43
2019-06-15T02:40:47.444Z,16.39
2019-06-15T02:41:47.432Z,16.36
2019-06-15T02:42:47.440Z,16.41
2019-06-15T02:43:47.455Z,16.41
2019-06-15T02:44:47.388Z,16.43
2019-06-15T02:45:47.382Z,16.42
2019-06-15T02:46:47.367Z,16.36
2019-06-15T02:47:47.356Z,16.38
2019-06-15T02:48:47.364Z,16.31
2019-06-15T02:49:47.328Z,16.28
2019-06-15T02:50:47.319Z,16.38
2019-06-15T02:51:47.309Z,16.36
2019-06-15T02:52:47.293Z,16.38
2019-06-15T02:53:47.285Z,16.41
2019-06-15T02:54:47.287Z,16.41
2019-06-15T02:55:50.591Z,16.23
2019-06-15T02:56:47.249Z,16.31
2019-06-15T02:57:47.231Z,16.32
2019-06-15T02:58:47.227Z,16.33
2019-06-15T02:59:47.207Z,16.28
2019-06-15T03:00:47.221Z,16.35
2019-06-15T03:01:47.200Z,16.33
2019-06-15T03:02:47.170Z,16.26
2019-06-15T03:03:47.167Z,16.33
2019-06-15T03:04:47.155Z,16.21
2019-06-15T03:05:47.135Z,16.33
2019-06-15T03:06:47.155Z,16.32
2019-06-15T03:07:47.113Z,16.31
2019-06-15T03:08:47.102Z,16.24
2019-06-15T03:09:47.087Z,16.26
2019-06-15T03:10:47.075Z,16.16
2019-06-15T03:11:47.063Z,16.16
2019-06-15T03:12:47.076Z,16.21
2019-06-15T03:13:47.038Z,16.21
2019-06-15T03:14:47.028Z,16.21
2019-06-15T03:15:47.019Z,16.23
2019-06-15T03:16:47.003Z,16.17
2019-06-15T03:17:46.989Z,16.15
2019-06-15T03:18:46.996Z,16.20
2019-06-15T03:19:46.966Z,16.21
2019-06-15T03:20:46.968Z,16.12
2019-06-15T03:21:46.942Z,16.16
2019-06-15T03:22:46.936Z,16.21
2019-06-15T03:23:46.917Z,16.17
2019-06-15T03:24:46.923Z,16.23
2019-06-15T03:25:46.893Z,16.26
2019-06-15T03:26:46.879Z,16.29
2019-06-15T03:27:46.871Z,16.26
2019-06-15T03:28:46.859Z,16.28
2019-06-15T03:29:46.844Z,16.32
2019-06-15T03:30:46.855Z,16.31
2019-06-15T03:31:46.820Z,16.31
2019-06-15T03:32:46.816Z,16.41
2019-06-15T03:33:46.799Z,16.38
2019-06-15T03:34:46.783Z,16.42
2019-06-15T03:35:46.770Z,16.46
2019-06-15T03:36:46.783Z,16.42
2019-06-15T03:37:46.752Z,16.39
2019-06-15T03:38:46.772Z,16.43
2019-06-15T03:39:46.721Z,16.51
2019-06-15T03:40:46.708Z,16.46
2019-06-15T03:41:46.705Z,16.46
2019-06-15T03:42:46.706Z,16.53
2019-06-15T03:43:46.677Z,16.60
2019-06-15T03:44:46.662Z,16.53
2019-06-15T03:45:46.679Z,16.64
2019-06-15T03:46:46.641Z,16.69
2019-06-15T03:47:46.622Z,16.68
2019-06-15T03:48:46.637Z,16.75
2019-06-15T03:49:46.598Z,16.74
2019-06-15T03:50:46.588Z,16.76
2019-06-15T03:51:46.577Z,16.79
2019-06-15T03:52:46.574Z,16.87
2019-06-15T03:53:46.552Z,16.81
2019-06-15T03:54:46.562Z,16.86
2019-06-15T03:55:46.527Z,16.84
2019-06-15T03:56:46.515Z,16.79
2019-06-15T03:57:46.507Z,16.87
2019-06-15T03:58:46.491Z,16.87
2019-06-15T03:59:46.485Z,16.89
2019-06-15T04:00:46.495Z,16.90
2019-06-15T04:01:46.455Z,16.94
2019-06-15T04:02:46.451Z,16.89
2019-06-15T04:03:46.431Z,16.97
2019-06-15T04:04:46.441Z,16.99
2019-06-15T04:05:46.409Z,17.08
2019-06-15T04:06:46.432Z,17.08
2019-06-15T04:07:46.392Z,17.09
2019-06-15T04:08:46.373Z,17.11
2019-06-15T04:09:46.362Z,17.15
2019-06-15T04:10:46.351Z,17.19
2019-06-15T04:11:46.338Z,17.16
2019-06-15T04:12:46.353Z,17.20
2019-06-15T04:13:46.317Z,17.20
2019-06-15T04:14:46.302Z,17.20
2019-06-15T04:15:46.292Z,17.15
2019-06-15T04:16:46.280Z,17.23
2019-06-15T04:17:46.273Z,17.26
2019-06-15T04:18:46.275Z,17.34
2019-06-15T04:19:46.244Z,17.24
2019-06-15T04:20:46.232Z,17.19
2019-06-15T04:21:46.231Z,17.29
2019-06-15T04:22:46.223Z,17.30
2019-06-15T04:23:46.201Z,17.33
2019-06-15T04:24:46.205Z,17.20
2019-06-15T04:25:46.238Z,17.26
2019-06-15T04:26:46.164Z,17.26
2019-06-15T04:27:46.161Z,17.26
2019-06-15T04:28:46.138Z,17.34
2019-06-15T04:29:46.132Z,17.44
2019-06-15T04:30:46.145Z,17.42
2019-06-15T04:31:46.108Z,17.52
2019-06-15T04:32:46.098Z,17.64
2019-06-15T04:33:46.086Z,17.68
2019-06-15T04:34:46.069Z,17.68
2019-06-15T04:35:46.059Z,17.82
2019-06-15T04:36:46.071Z,17.87
2019-06-15T04:37:46.044Z,17.83
2019-06-15T04:38:46.027Z,17.95
2019-06-15T04:39:46.011Z,17.82
2019-06-15T04:40:46.005Z,17.80
2019-06-15T04:41:45.993Z,17.82
2019-06-15T04:42:45.997Z,17.92
2019-06-15T04:43:45.965Z,17.82
2019-06-15T04:44:45.955Z,17.89
2019-06-15T04:45:45.958Z,17.72
2019-06-15T04:46:45.930Z,17.60
2019-06-15T04:47:45.927Z,17.57
2019-06-15T04:48:45.934Z,17.67
2019-06-15T04:49:45.900Z,17.54
2019-06-15T04:50:45.892Z,17.51
2019-06-15T04:51:45.877Z,17.68
2019-06-15T04:52:45.868Z,17.59
2019-06-15T04:53:45.853Z,17.51
2019-06-15T04:54:45.860Z,17.60
2019-06-15T04:55:45.831Z,17.67
2019-06-15T04:56:51.089Z,17.64
2019-06-15T04:57:46.813Z,17.67
2019-06-15T04:58:45.796Z,17.57
2019-06-15T04:59:45.792Z,17.54
2019-06-15T05:00:45.793Z,17.63
2019-06-15T05:01:45.761Z,17.74
2019-06-15T05:02:45.752Z,17.89
2019-06-15T05:03:45.740Z,18.15
2019-06-15T05:04:45.728Z,18.28
2019-06-15T05:05:45.719Z,18.40
2019-06-15T05:06:45.734Z,18.44
2019-06-15T05:07:45.694Z,18.86
2019-06-15T05:08:45.681Z,19.11
2019-06-15T05:09:45.669Z,19.15
2019-06-15T05:10:45.661Z,19.34
2019-06-15T05:11:45.653Z,19.31
2019-06-15T05:12:45.653Z,19.44
2019-06-15T05:13:45.623Z,19.81
2019-06-15T05:14:45.611Z,19.96
2019-06-15T05:15:45.599Z,20.03
2019-06-15T05:16:45.593Z,20.09
2019-06-15T05:17:46.397Z,20.22
2019-06-15T05:18:45.588Z,19.99
2019-06-15T05:19:45.556Z,19.96
2019-06-15T05:20:45.544Z,19.74
2019-06-15T05:21:45.536Z,19.70
2019-06-15T05:22:45.522Z,19.49
2019-06-15T05:23:45.508Z,19.26
2019-06-15T05:24:45.524Z,19.21
2019-06-15T05:25:45.486Z,19.08
2019-06-15T05:26:45.482Z,18.88
2019-06-15T05:27:45.464Z,18.83
2019-06-15T05:28:45.452Z,18.83
2019-06-15T05:29:45.447Z,18.70
2019-06-15T05:30:45.456Z,18.58
2019-06-15T05:31:45.421Z,18.50
2019-06-15T05:32:45.421Z,18.28
2019-06-15T05:33:45.395Z,18.28
2019-06-15T05:34:45.388Z,18.16
2019-06-15T05:35:45.376Z,18.23
2019-06-15T05:36:45.382Z,18.15
2019-06-15T05:37:45.349Z,18.15
2019-06-15T05:38:45.340Z,18.18
2019-06-15T05:39:45.328Z,18.16
2019-06-15T05:40:45.362Z,18.29
2019-06-15T05:41:45.311Z,18.28
2019-06-15T05:42:45.316Z,18.28
2019-06-15T05:43:45.281Z,18.23
2019-06-15T05:44:45.275Z,18.22
2019-06-15T05:45:45.257Z,18.19
2019-06-15T05:46:45.251Z,18.10
2019-06-15T05:47:45.236Z,18.00
2019-06-15T05:48:45.255Z,18.01
2019-06-15T05:49:45.216Z,17.98
2019-06-15T05:50:45.201Z,17.76
2019-06-15T05:51:45.190Z,17.80
2019-06-15T05:52:45.179Z,17.82
2019-06-15T05:53:45.170Z,17.80
2019-06-15T05:54:45.181Z,17.80
2019-06-15T05:55:45.148Z,17.80
2019-06-15T05:56:45.142Z,17.87
2019-06-15T05:57:45.121Z,17.86
2019-06-15T05:58:45.112Z,17.79
2019-06-15T05:59:45.101Z,17.82
2019-06-15T06:00:45.163Z,17.80
2019-06-15T06:01:45.079Z,17.74
2019-06-15T06:02:45.068Z,17.80
2019-06-15T06:03:45.063Z,17.82
2019-06-15T06:04:45.052Z,17.92
2019-06-15T06:05:45.030Z,17.92
2019-06-15T06:06:45.088Z,17.76
2019-06-15T06:07:45.010Z,17.80
2019-06-15T06:08:44.997Z,17.74
2019-06-15T06:09:44.986Z,17.78
2019-06-15T06:10:44.972Z,17.82
2019-06-15T06:11:44.962Z,17.80
2019-06-15T06:12:44.986Z,17.79
2019-06-15T06:13:44.940Z,17.68
2019-06-15T06:14:44.929Z,17.70
2019-06-15T06:15:44.917Z,17.64
2019-06-15T06:16:44.907Z,17.65
2019-06-15T06:17:44.895Z,17.64
2019-06-15T06:18:44.908Z,17.67
2019-06-15T06:19:44.877Z,17.65
2019-06-15T06:20:44.860Z,17.59
2019-06-15T06:21:44.852Z,17.65
2019-06-15T06:22:44.839Z,17.65
2019-06-15T06:23:44.835Z,17.59
2019-06-15T06:24:44.838Z,17.68
2019-06-15T06:25:44.801Z,17.76
2019-06-15T06:26:44.801Z,17.76
2019-06-15T06:27:44.779Z,17.78
2019-06-15T06:28:56.556Z,17.87
2019-06-15T06:29:45.779Z,17.80
2019-06-15T06:30:44.745Z,17.89
2019-06-15T06:31:44.734Z,18.10
2019-06-15T06:32:44.726Z,18.19
2019-06-15T06:33:44.712Z,18.34
2019-06-15T06:34:44.699Z,18.41
2019-06-15T06:35:44.715Z,18.60
2019-06-15T06:36:44.679Z,18.88
2019-06-15T06:37:44.678Z,19.26
2019-06-15T06:38:44.660Z,19.64
2019-06-15T06:39:44.643Z,19.95
2019-06-15T06:40:44.655Z,20.16
2019-06-15T06:41:44.648Z,20.40
2019-06-15T06:42:44.616Z,20.60
2019-06-15T06:43:44.599Z,20.66
2019-06-15T06:44:44.597Z,20.63
2019-06-15T06:45:44.576Z,20.56
2019-06-15T06:46:44.564Z,20.43
2019-06-15T06:47:44.574Z,20.37
2019-06-15T06:48:44.573Z,20.43
2019-06-15T06:49:44.532Z,20.21
2019-06-15T06:50:44.521Z,20.13
2019-06-15T06:51:44.514Z,20.11
2019-06-15T06:52:44.500Z,20.13
2019-06-15T06:53:44.515Z,20.24
2019-06-15T06:54:44.483Z,20.16
2019-06-15T06:55:44.467Z,20.09
2019-06-15T06:56:44.460Z,20.04
2019-06-15T06:57:53.298Z,20.07
2019-06-15T06:58:45.453Z,20.02
2019-06-15T06:59:44.424Z,20.06
2019-06-15T07:00:44.418Z,20.06
2019-06-15T07:01:44.406Z,19.94
2019-06-15T07:02:44.390Z,20.04
2019-06-15T07:03:44.381Z,20.00
2019-06-15T07:04:44.390Z,19.82
2019-06-15T07:05:44.360Z,19.74
2019-06-15T07:06:44.350Z,19.76
2019-06-15T07:07:44.344Z,19.95
2019-06-15T07:08:44.343Z,20.90
2019-06-15T07:09:44.312Z,21.03
2019-06-15T07:10:44.323Z,20.93
2019-06-15T07:11:44.380Z,20.92
2019-06-15T07:12:44.282Z,20.99
2019-06-15T07:13:44.267Z,20.88
2019-06-15T07:14:44.258Z,20.63
2019-06-15T07:15:44.244Z,20.66
2019-06-15T07:16:44.257Z,20.81
2019-06-15T07:17:44.242Z,20.63
2019-06-15T07:18:44.210Z,20.52
2019-06-15T07:19:44.200Z,20.47
2019-06-15T07:20:44.190Z,20.32
2019-06-15T07:21:44.173Z,20.26
2019-06-15T07:22:44.188Z,20.28
2019-06-15T07:23:44.157Z,20.28
2019-06-15T07:24:44.206Z,20.14
2019-06-15T07:25:44.133Z,20.25
2019-06-15T07:26:44.116Z,20.28
2019-06-15T07:27:44.108Z,20.34
2019-06-15T07:28:44.118Z,20.58
2019-06-15T07:29:44.087Z,20.59
2019-06-15T07:30:44.071Z,20.82
2019-06-15T07:31:44.065Z,21.21
2019-06-15T07:32:44.048Z,21.79
2019-06-15T07:33:44.039Z,22.26
2019-06-15T07:34:44.051Z,22.43
2019-06-15T07:35:44.017Z,23.36
2019-06-15T07:36:44.009Z,24.54
2019-06-15T07:37:43.994Z,25.22
2019-06-15T07:38:43.983Z,25.90
2019-06-15T07:39:43.972Z,26.31
2019-06-15T07:40:43.984Z,26.23
2019-06-15T07:41:43.954Z,25.50
2019-06-15T07:42:43.939Z,25.11
2019-06-15T07:43:43.929Z,24.53
2019-06-15T07:44:43.920Z,24.08
2019-06-15T07:45:43.906Z,23.54
2019-06-15T07:46:43.922Z,23.13
2019-06-15T07:47:43.886Z,23.00
2019-06-15T07:48:43.878Z,22.69
2019-06-15T07:49:43.865Z,22.45
2019-06-15T07:50:43.854Z,22.26
2019-06-15T07:51:43.841Z,21.96
2019-06-15T07:52:43.865Z,21.69
2019-06-15T07:53:43.817Z,21.45
2019-06-15T07:54:43.808Z,21.11
2019-06-15T07:55:43.795Z,21.03
2019-06-15T07:56:43.795Z,22.08
2019-06-15T07:57:43.777Z,22.08
2019-06-15T07:58:43.782Z,21.93
2019-06-15T07:59:43.753Z,23.44
2019-06-15T08:00:43.741Z,24.40
2019-06-15T08:01:43.734Z,25.07
2019-06-15T08:02:43.718Z,25.48
2019-06-15T08:03:43.710Z,26.34
2019-06-15T08:04:43.721Z,26.90
2019-06-15T08:05:43.692Z,26.99
2019-06-15T08:06:43.683Z,26.99
2019-06-15T08:07:43.667Z,25.95
2019-06-15T08:08:43.653Z,25.58
2019-06-15T08:09:43.644Z,24.69
2019-06-15T08:10:43.657Z,24.42
2019-06-15T08:11:45.846Z,25.10
2019-06-15T08:12:43.615Z,24.91
2019-06-15T08:13:43.605Z,24.95
2019-06-15T08:14:43.590Z,24.32
2019-06-15T08:15:43.582Z,24.17
2019-06-15T08:16:43.594Z,24.23
2019-06-15T08:17:45.715Z,24.35
2019-06-15T08:18:43.552Z,24.42
2019-06-15T08:19:43.539Z,23.96
2019-06-15T08:20:43.526Z,23.87
2019-06-15T08:21:43.519Z,23.63
2019-06-15T08:22:43.528Z,23.25
2019-06-15T08:23:43.499Z,23.06
2019-06-15T08:24:43.497Z,22.76
2019-06-15T08:25:43.473Z,22.60
2019-06-15T08:26:43.463Z,22.47
2019-06-15T08:27:43.479Z,22.32
2019-06-15T08:28:43.487Z,22.36
2019-06-15T08:29:43.432Z,22.80
2019-06-15T08:30:43.419Z,23.62
2019-06-15T08:31:43.414Z,23.47
2019-06-15T08:32:43.419Z,23.81
2019-06-15T08:33:43.390Z,23.92
2019-06-15T08:34:43.409Z,24.33
2019-06-15T08:35:43.367Z,24.08
2019-06-15T08:36:43.392Z,23.81
2019-06-15T08:37:43.345Z,23.32
2019-06-15T08:38:43.331Z,22.84
2019-06-15T08:39:43.366Z,22.50
2019-06-15T08:40:43.336Z,22.36
2019-06-15T08:41:43.297Z,22.26
2019-06-15T08:42:43.288Z,22.22
2019-06-15T08:43:43.285Z,22.14
2019-06-15T08:44:43.265Z,22.04
2019-06-15T08:45:43.255Z,22.20
2019-06-15T08:46:43.272Z,22.20
2019-06-15T08:47:43.243Z,22.02
2019-06-15T08:48:43.226Z,22.04
2019-06-15T08:49:43.212Z,22.14
2019-06-15T08:50:43.199Z,21.91
2019-06-15T08:51:43.193Z,21.80
2019-06-15T08:52:43.202Z,21.72
2019-06-15T08:53:43.169Z,21.62
2019-06-15T08:54:43.157Z,21.45
2019-06-15T08:55:43.148Z,21.36
2019-06-15T08:56:43.149Z,21.24
2019-06-15T08:57:43.122Z,21.11
2019-06-15T08:58:54.845Z,20.95
2019-06-15T08:59:44.108Z,21.03
2019-06-15T09:00:43.090Z,20.95
2019-06-15T09:01:43.085Z,20.81
2019-06-15T09:02:43.068Z,20.77
2019-06-15T09:03:43.060Z,21.12
2019-06-15T09:04:43.071Z,22.48
2019-06-15T09:05:43.041Z,23.24
2019-06-15T09:06:43.026Z,24.14
2019-06-15T09:07:43.017Z,24.91
2019-06-15T09:08:43.006Z,25.33
2019-06-15T09:09:42.995Z,25.60
2019-06-15T09:10:43.007Z,25.91
2019-06-15T09:11:43.025Z,26.10
2019-06-15T09:12:42.973Z,25.98
2019-06-15T09:13:42.952Z,26.31
2019-06-15T09:14:42.943Z,26.80
2019-06-15T09:15:42.929Z,26.66
2019-06-15T09:16:42.944Z,26.90
2019-06-15T09:17:42.911Z,26.92
2019-06-15T09:18:42.898Z,26.60
2019-06-15T09:19:42.891Z,26.70
2019-06-15T09:20:42.877Z,26.60
2019-06-15T09:21:42.866Z,26.63
2019-06-15T09:22:42.876Z,26.99
2019-06-15T09:23:42.851Z,27.25
2019-06-15T09:24:42.841Z,27.45
2019-06-15T09:25:42.834Z,27.67
2019-06-15T09:26:42.820Z,27.35
2019-06-15T09:27:42.821Z,27.80
2019-06-15T09:28:42.817Z,28.02
2019-06-15T09:29:42.788Z,28.38
2019-06-15T09:30:42.782Z,28.23
2019-06-15T09:31:42.770Z,28.22
2019-06-15T09:32:42.760Z,28.30
2019-06-15T09:33:42.751Z,28.15
2019-06-15T09:34:42.782Z,28.17
2019-06-15T09:35:42.735Z,27.11
2019-06-15T09:36:42.720Z,25.85
2019-06-15T09:37:42.720Z,25.11
2019-06-15T09:38:42.699Z,25.06
2019-06-15T09:39:42.695Z,25.73
2019-06-15T09:40:42.710Z,24.80
2019-06-15T09:41:42.673Z,25.22
2019-06-15T09:42:42.662Z,26.02
2019-06-15T09:43:42.649Z,26.41
2019-06-15T09:44:42.647Z,26.84
2019-06-15T09:45:42.636Z,26.55
2019-06-15T09:46:42.656Z,26.93
2019-06-15T09:47:42.612Z,27.52
2019-06-15T09:48:42.603Z,27.64
2019-06-15T09:49:42.596Z,27.59
2019-06-15T09:50:42.584Z,27.82
2019-06-15T09:51:42.588Z,28.08
2019-06-15T09:52:42.613Z,27.74
2019-06-15T09:53:42.566Z,27.75
2019-06-15T09:54:42.549Z,27.64
2019-06-15T09:55:42.540Z,27.36
2019-06-15T09:56:42.531Z,27.05
2019-06-15T09:57:42.520Z,27.67
2019-06-15T09:58:42.540Z,27.80
2019-06-15T09:59:42.499Z,28.17
2019-06-15T10:00:42.536Z,28.23
2019-06-15T10:01:42.482Z,28.29
2019-06-15T10:02:42.482Z,28.05
2019-06-15T10:03:42.464Z,28.15
2019-06-15T10:04:42.481Z,28.15
2019-06-15T10:05:42.463Z,27.86
2019-06-15T10:06:42.439Z,27.78
2019-06-15T10:07:42.442Z,27.64
2019-06-15T10:08:42.467Z,27.86
2019-06-15T10:09:42.415Z,27.74
2019-06-15T10:10:42.435Z,28.26
2019-06-15T10:11:42.398Z,28.64
2019-06-15T10:12:42.414Z,28.44
2019-06-15T10:13:42.377Z,28.30
2019-06-15T10:14:42.376Z,27.77
2019-06-15T10:15:42.368Z,27.83
2019-06-15T10:16:42.375Z,27.82
2019-06-15T10:17:42.344Z,28.32
2019-06-15T10:18:42.340Z,28.42
2019-06-15T10:19:42.331Z,28.20
2019-06-15T10:20:42.318Z,27.65
2019-06-15T10:21:42.313Z,27.51
2019-06-15T10:22:42.328Z,26.59
2019-06-15T10:23:42.291Z,26.81
2019-06-15T10:24:42.285Z,26.88
2019-06-15T10:25:42.272Z,26.73
2019-06-15T10:26:42.265Z,26.51
2019-06-15T10:27:42.267Z,26.95
2019-06-15T10:28:42.266Z,27.39
2019-06-15T10:29:42.609Z,28.04
2019-06-15T10:30:42.228Z,28.42
2019-06-15T10:31:42.221Z,28.82
2019-06-15T10:32:42.206Z,27.95
2019-06-15T10:33:42.230Z,27.75
2019-06-15T10:34:42.215Z,27.22
2019-06-15T10:35:42.213Z,27.15
2019-06-15T10:36:42.174Z,26.80
2019-06-15T10:37:42.158Z,26.95
2019-06-15T10:38:42.152Z,27.63
2019-06-15T10:39:42.141Z,27.98
2019-06-15T10:40:42.153Z,27.52
2019-06-15T10:41:42.124Z,26.97
2019-06-15T10:42:42.160Z,26.40
2019-06-15T10:43:42.107Z,26.36
2019-06-15T10:44:42.099Z,26.21
2019-06-15T10:45:42.082Z,26.33
2019-06-15T10:46:42.096Z,26.74
2019-06-15T10:47:42.068Z,26.19
2019-06-15T10:48:42.060Z,26.18
2019-06-15T10:49:42.044Z,25.95
2019-06-15T10:50:42.035Z,25.46
2019-06-15T10:51:42.028Z,25.07
2019-06-15T10:52:42.033Z,24.70
2019-06-15T10:53:42.007Z,24.47
2019-06-15T10:54:41.994Z,24.39
2019-06-15T10:55:41.989Z,24.08
2019-06-15T10:56:41.972Z,24.05
2019-06-15T10:57:41.983Z,24.11
2019-06-15T10:58:41.974Z,24.17
2019-06-15T10:59:56.132Z,24.55
2019-06-15T11:00:42.932Z,24.84
2019-06-15T11:01:41.923Z,25.07
2019-06-15T11:02:41.920Z,25.32
2019-06-15T11:03:41.930Z,25.68
2019-06-15T11:04:41.918Z,25.81
2019-06-15T11:05:41.881Z,25.93
2019-06-15T11:06:41.871Z,26.41
2019-06-15T11:07:41.861Z,26.58
2019-06-15T11:08:41.852Z,26.55
2019-06-15T11:09:41.838Z,26.68
2019-06-15T11:10:41.864Z,26.63
2019-06-15T11:11:41.822Z,26.47
2019-06-15T11:12:46.475Z,26.00
2019-06-15T11:13:42.802Z,25.77
2019-06-15T11:14:41.792Z,25.93
2019-06-15T11:15:41.778Z,26.00
2019-06-15T11:16:41.792Z,26.19
2019-06-15T11:17:41.760Z,26.55
2019-06-15T11:18:41.749Z,26.44
2019-06-15T11:19:41.739Z,26.09
2019-06-15T11:20:41.729Z,25.73
2019-06-15T11:21:41.717Z,26.00
2019-06-15T11:22:41.833Z,26.45
2019-06-15T11:23:41.696Z,26.52
2019-06-15T11:24:41.688Z,26.62
2019-06-15T11:25:41.677Z,26.81
2019-06-15T11:26:42.152Z,27.65
2019-06-15T11:27:41.658Z,28.07
2019-06-15T11:28:41.673Z,28.08
2019-06-15T11:29:41.638Z,27.64
2019-06-15T11:30:41.633Z,26.71
2019-06-15T11:31:41.623Z,25.98
2019-06-15T11:32:41.606Z,25.70
2019-06-15T11:33:41.598Z,25.70
2019-06-15T11:34:41.614Z,25.58
2019-06-15T11:35:41.576Z,25.62
2019-06-15T11:36:41.568Z,25.47
2019-06-15T11:37:41.557Z,25.51
2019-06-15T11:38:41.549Z,25.58
2019-06-15T11:39:41.551Z,25.66
2019-06-15T11:40:41.550Z,25.72
2019-06-15T11:41:41.520Z,25.28
2019-06-15T11:42:41.508Z,25.03
2019-06-15T11:43:41.497Z,25.13
2019-06-15T11:44:41.482Z,25.03
2019-06-15T11:45:41.474Z,25.06
2019-06-15T11:46:41.552Z,24.81
2019-06-15T11:47:41.454Z,24.65
2019-06-15T11:48:41.449Z,24.47
2019-06-15T11:49:41.439Z,24.43
2019-06-15T11:50:41.418Z,24.14
2019-06-15T11:51:41.410Z,23.96
2019-06-15T11:52:41.422Z,23.80
2019-06-15T11:53:41.390Z,23.80
2019-06-15T11:54:41.375Z,23.68
2019-06-15T11:55:41.366Z,23.71
2019-06-15T11:56:41.358Z,23.66
2019-06-15T11:57:41.345Z,23.46
2019-06-15T11:58:41.360Z,23.51
2019-06-15T11:59:41.324Z,23.32
2019-06-15T12:00:41.320Z,23.20
2019-06-15T12:01:41.303Z,23.24
2019-06-15T12:02:41.299Z,23.12
2019-06-15T12:03:41.287Z,23.13
2019-06-15T12:04:41.298Z,23.06
2019-06-15T12:05:41.273Z,23.24
2019-06-15T12:06:41.271Z,23.18
2019-06-15T12:07:41.253Z,23.23
2019-06-15T12:08:41.233Z,23.17
2019-06-15T12:09:41.215Z,23.17
2019-06-15T12:10:41.224Z,23.27
2019-06-15T12:11:41.196Z,23.17
2019-06-15T12:12:41.181Z,23.28
2019-06-15T12:13:41.182Z,23.50
2019-06-15T12:14:41.165Z,23.51
2019-06-15T12:15:41.152Z,23.68
2019-06-15T12:16:41.158Z,23.74
2019-06-15T12:17:41.127Z,23.76
2019-06-15T12:18:41.135Z,23.78
2019-06-15T12:19:41.105Z,23.86
2019-06-15T12:20:41.094Z,23.68
2019-06-15T12:21:41.091Z,23.83
2019-06-15T12:22:41.103Z,23.77
2019-06-15T12:23:41.062Z,23.93
2019-06-15T12:24:41.052Z,24.01
2019-06-15T12:25:41.048Z,23.81
2019-06-15T12:26:41.029Z,23.76
2019-06-15T12:27:41.021Z,23.48
2019-06-15T12:28:41.043Z,23.56
2019-06-15T12:29:40.996Z,23.47
2019-06-15T12:30:47.323Z,23.48
2019-06-15T12:31:41.981Z,23.51
2019-06-15T12:32:40.969Z,23.74
2019-06-15T12:33:40.953Z,23.91
2019-06-15T12:34:40.968Z,24.13
2019-06-15T12:35:40.929Z,24.38
2019-06-15T12:36:40.919Z,24.55
2019-06-15T12:37:40.917Z,24.81
2019-06-15T12:38:40.903Z,24.95
2019-06-15T12:39:42.097Z,24.96
2019-06-15T12:40:40.895Z,24.74
2019-06-15T12:41:40.871Z,24.68
2019-06-15T12:42:40.854Z,24.73
2019-06-15T12:43:40.842Z,24.50
2019-06-15T12:44:40.837Z,24.38
2019-06-15T12:45:40.830Z,24.43
2019-06-15T12:46:40.871Z,24.28
2019-06-15T12:47:40.805Z,24.26
2019-06-15T12:48:40.795Z,24.16
2019-06-15T12:49:40.778Z,24.30
2019-06-15T12:50:40.770Z,24.24
2019-06-15T12:51:41.002Z,24.24
2019-06-15T12:52:40.773Z,24.35